sensor_id;sensor_type;location;lat;lon;timestamp;temperature;humidity
9482;DHT22;4779;48.062;11.672;2024-02-21T00:00:04;4.40;99.90
9482;DHT22;4779;48.062;11.672;2024-02-21T00:02:33;4.50;99.90
9482;DHT22;4779;48.062;11.672;2024-02-21T00:05:00;4.40;99.90
9482;DHT22;4779;48.062;11.672;2024-02-21T00:07:27;4.50;99.90
9482;DHT22;4779;48.062;11.672;2024-02-21T00:09:54;4.50;99.90
9482;DHT22;4779;48.062;11.672;2024-02-21T00:12:21;4.50;99.90
9482;DHT22;4779;48.062;11.672;2024-02-21T00:14:48;4.40;99.90
9482;DHT22;4779;48.062;11.672;2024-02-21T00:17:15;4.40;99.90
9482;DHT22;4779;48.062;11.672;2024-02-21T00:19:44;4.40;99.90
9482;DHT22;4779;48.062;11.672;2024-02-21T00:22:11;4.40;99.90
9482;DHT22;4779;48.062;11.672;2024-02-21T00:24:38;4.50;99.90
9482;DHT22;4779;48.062;11.672;2024-02-21T00:27:05;4.50;99.90
9482;DHT22;4779;48.062;11.672;2024-02-21T00:29:32;4.60;99.90
9482;DHT22;4779;48.062;11.672;2024-02-21T00:32:00;4.50;99.90
9482;DHT22;4779;48.062;11.672;2024-02-21T00:34:27;4.50;99.90
9482;DHT22;4779;48.062;11.672;2024-02-21T00:36:55;4.60;99.90
9482;DHT22;4779;48.062;11.672;2024-02-21T00:39:22;4.50;99.90
9482;DHT22;4779;48.062;11.672;2024-02-21T00:41:49;4.50;99.90
9482;DHT22;4779;48.062;11.672;2024-02-21T00:44:16;4.50;99.90
9482;DHT22;4779;48.062;11.672;2024-02-21T00:46:43;4.50;99.90
9482;DHT22;4779;48.062;11.672;2024-02-21T00:49:12;4.60;99.90
9482;DHT22;4779;48.062;11.672;2024-02-21T00:51:39;4.50;99.90
9482;DHT22;4779;48.062;11.672;2024-02-21T00:54:07;4.60;99.90
9482;DHT22;4779;48.062;11.672;2024-02-21T00:56:34;4.60;99.90
9482;DHT22;4779;48.062;11.672;2024-02-21T00:59:01;4.60;99.90
9482;DHT22;4779;48.062;11.672;2024-02-21T01:01:28;4.50;99.90
9482;DHT22;4779;48.062;11.672;2024-02-21T01:03:55;4.50;99.90
9482;DHT22;4779;48.062;11.672;2024-02-21T01:06:22;4.50;99.90
9482;DHT22;4779;48.062;11.672;2024-02-21T01:08:50;4.50;99.90
9482;DHT22;4779;48.062;11.672;2024-02-21T01:11:18;4.50;99.90
9482;DHT22;4779;48.062;11.672;2024-02-21T01:13:48;4.60;99.90
9482;DHT22;4779;48.062;11.672;2024-02-21T01:16:15;4.70;99.90
9482;DHT22;4779;48.062;11.672;2024-02-21T01:18:42;4.70;99.90
9482;DHT22;4779;48.062;11.672;2024-02-21T01:21:09;4.70;99.90
9482;DHT22;4779;48.062;11.672;2024-02-21T01:23:37;4.60;99.90
9482;DHT22;4779;48.062;11.672;2024-02-21T01:26:04;4.60;99.90
9482;DHT22;4779;48.062;11.672;2024-02-21T01:28:35;4.70;99.90
9482;DHT22;4779;48.062;11.672;2024-02-21T01:31:03;4.70;99.90
9482;DHT22;4779;48.062;11.672;2024-02-21T01:33:30;4.90;99.90
9482;DHT22;4779;48.062;11.672;2024-02-21T01:36:00;4.80;99.90
9482;DHT22;4779;48.062;11.672;2024-02-21T01:38:28;4.80;99.90
9482;DHT22;4779;48.062;11.672;2024-02-21T01:40:55;4.80;99.90
9482;DHT22;4779;48.062;11.672;2024-02-21T01:43:22;4.80;99.90
9482;DHT22;4779;48.062;11.672;2024-02-21T01:45:51;4.80;99.90
9482;DHT22;4779;48.062;11.672;2024-02-21T01:48:19;4.80;99.90
9482;DHT22;4779;48.062;11.672;2024-02-21T01:50:47;4.80;99.90
9482;DHT22;4779;48.062;11.672;2024-02-21T01:53:17;4.80;99.90
9482;DHT22;4779;48.062;11.672;2024-02-21T01:55:45;4.70;99.90
9482;DHT22;4779;48.062;11.672;2024-02-21T01:58:13;4.70;99.90
9482;DHT22;4779;48.062;11.672;2024-02-21T02:00:42;4.80;99.90
9482;DHT22;4779;48.062;11.672;2024-02-21T02:03:12;4.70;99.90
9482;DHT22;4779;48.062;11.672;2024-02-21T02:05:44;4.60;99.90
9482;DHT22;4779;48.062;11.672;2024-02-21T02:08:12;4.60;99.90
9482;DHT22;4779;48.062;11.672;2024-02-21T02:10:39;4.60;99.90
9482;DHT22;4779;48.062;11.672;2024-02-21T02:13:06;4.50;99.90
9482;DHT22;4779;48.062;11.672;2024-02-21T02:15:40;4.50;99.90
9482;DHT22;4779;48.062;11.672;2024-02-21T02:18:07;4.50;99.90
9482;DHT22;4779;48.062;11.672;2024-02-21T02:20:36;4.60;99.90
9482;DHT22;4779;48.062;11.672;2024-02-21T02:23:07;4.70;99.90
9482;DHT22;4779;48.062;11.672;2024-02-21T02:25:38;4.60;99.90
9482;DHT22;4779;48.062;11.672;2024-02-21T02:28:06;4.50;99.90
9482;DHT22;4779;48.062;11.672;2024-02-21T02:30:33;4.60;99.90
9482;DHT22;4779;48.062;11.672;2024-02-21T02:33:02;4.50;99.90
9482;DHT22;4779;48.062;11.672;2024-02-21T02:35:29;4.60;99.90
9482;DHT22;4779;48.062;11.672;2024-02-21T02:37:56;4.70;99.90
9482;DHT22;4779;48.062;11.672;2024-02-21T02:40:23;4.70;99.90
9482;DHT22;4779;48.062;11.672;2024-02-21T02:42:52;4.80;99.90
9482;DHT22;4779;48.062;11.672;2024-02-21T02:45:21;4.70;99.90
9482;DHT22;4779;48.062;11.672;2024-02-21T02:47:49;4.70;99.90
9482;DHT22;4779;48.062;11.672;2024-02-21T02:50:16;4.70;99.90
9482;DHT22;4779;48.062;11.672;2024-02-21T02:52:43;4.70;99.90
9482;DHT22;4779;48.062;11.672;2024-02-21T02:55:10;4.70;99.90
9482;DHT22;4779;48.062;11.672;2024-02-21T02:57:37;4.70;99.90
9482;DHT22;4779;48.062;11.672;2024-02-21T03:00:07;4.70;99.90
9482;DHT22;4779;48.062;11.672;2024-02-21T03:02:34;4.70;99.90
9482;DHT22;4779;48.062;11.672;2024-02-21T03:05:01;4.70;99.90
9482;DHT22;4779;48.062;11.672;2024-02-21T03:07:37;4.70;99.90
9482;DHT22;4779;48.062;11.672;2024-02-21T03:10:05;4.70;99.90
9482;DHT22;4779;48.062;11.672;2024-02-21T03:12:32;4.70;99.90
9482;DHT22;4779;48.062;11.672;2024-02-21T03:14:59;4.70;99.90
9482;DHT22;4779;48.062;11.672;2024-02-21T03:17:28;4.70;99.90
9482;DHT22;4779;48.062;11.672;2024-02-21T03:19:55;4.70;99.90
9482;DHT22;4779;48.062;11.672;2024-02-21T03:22:22;4.80;99.90
9482;DHT22;4779;48.062;11.672;2024-02-21T03:24:49;4.80;99.90
9482;DHT22;4779;48.062;11.672;2024-02-21T03:27:16;4.80;99.90
9482;DHT22;4779;48.062;11.672;2024-02-21T03:29:43;4.80;99.90
9482;DHT22;4779;48.062;11.672;2024-02-21T03:32:10;4.70;99.90
9482;DHT22;4779;48.062;11.672;2024-02-21T03:34:38;4.60;99.90
9482;DHT22;4779;48.062;11.672;2024-02-21T03:37:05;4.60;99.90
9482;DHT22;4779;48.062;11.672;2024-02-21T03:39:33;4.60;99.90
9482;DHT22;4779;48.062;11.672;2024-02-21T03:42:00;4.60;99.90
9482;DHT22;4779;48.062;11.672;2024-02-21T03:44:30;4.70;99.90
9482;DHT22;4779;48.062;11.672;2024-02-21T03:46:57;4.70;99.90
9482;DHT22;4779;48.062;11.672;2024-02-21T03:49:24;4.60;99.90
9482;DHT22;4779;48.062;11.672;2024-02-21T03:51:53;4.70;99.90
9482;DHT22;4779;48.062;11.672;2024-02-21T03:54:20;4.60;99.90
9482;DHT22;4779;48.062;11.672;2024-02-21T03:56:47;4.60;99.90
9482;DHT22;4779;48.062;11.672;2024-02-21T03:59:14;4.60;99.90
9482;DHT22;4779;48.062;11.672;2024-02-21T04:01:41;4.50;99.90
9482;DHT22;4779;48.062;11.672;2024-02-21T04:04:09;4.50;99.90
9482;DHT22;4779;48.062;11.672;2024-02-21T04:06:36;4.50;99.90
9482;DHT22;4779;48.062;11.672;2024-02-21T04:09:04;4.50;99.90
9482;DHT22;4779;48.062;11.672;2024-02-21T04:11:31;4.60;99.90
9482;DHT22;4779;48.062;11.672;2024-02-21T04:13:58;4.60;99.90
9482;DHT22;4779;48.062;11.672;2024-02-21T04:16:25;4.60;99.90
9482;DHT22;4779;48.062;11.672;2024-02-21T04:18:52;4.60;99.90
9482;DHT22;4779;48.062;11.672;2024-02-21T04:21:19;4.60;99.90
9482;DHT22;4779;48.062;11.672;2024-02-21T04:23:46;4.60;99.90
9482;DHT22;4779;48.062;11.672;2024-02-21T04:26:15;4.60;99.90
9482;DHT22;4779;48.062;11.672;2024-02-21T04:28:44;4.60;99.90
9482;DHT22;4779;48.062;11.672;2024-02-21T04:31:11;4.60;99.90
9482;DHT22;4779;48.062;11.672;2024-02-21T04:33:38;4.60;99.90
9482;DHT22;4779;48.062;11.672;2024-02-21T04:36:06;4.50;99.90
9482;DHT22;4779;48.062;11.672;2024-02-21T04:38:33;4.50;99.90
9482;DHT22;4779;48.062;11.672;2024-02-21T04:41:00;4.60;99.90
9482;DHT22;4779;48.062;11.672;2024-02-21T04:43:28;4.50;99.90
9482;DHT22;4779;48.062;11.672;2024-02-21T04:45:55;4.50;99.90
9482;DHT22;4779;48.062;11.672;2024-02-21T04:48:22;4.50;99.90
9482;DHT22;4779;48.062;11.672;2024-02-21T04:50:49;4.40;99.90
9482;DHT22;4779;48.062;11.672;2024-02-21T04:53:16;4.40;99.90
9482;DHT22;4779;48.062;11.672;2024-02-21T04:55:44;4.40;99.90
9482;DHT22;4779;48.062;11.672;2024-02-21T04:58:11;4.30;99.90
9482;DHT22;4779;48.062;11.672;2024-02-21T05:00:39;4.30;99.90
9482;DHT22;4779;48.062;11.672;2024-02-21T05:03:07;4.30;99.90
9482;DHT22;4779;48.062;11.672;2024-02-21T05:05:34;4.20;99.90
9482;DHT22;4779;48.062;11.672;2024-02-21T05:08:01;4.20;99.90
9482;DHT22;4779;48.062;11.672;2024-02-21T05:10:28;4.20;99.90
9482;DHT22;4779;48.062;11.672;2024-02-21T05:12:55;4.20;99.90
9482;DHT22;4779;48.062;11.672;2024-02-21T05:15:22;4.10;99.90
9482;DHT22;4779;48.062;11.672;2024-02-21T05:17:51;4.10;99.90
9482;DHT22;4779;48.062;11.672;2024-02-21T05:20:18;4.10;99.90
9482;DHT22;4779;48.062;11.672;2024-02-21T05:22:45;4.00;99.90
9482;DHT22;4779;48.062;11.672;2024-02-21T05:25:12;4.00;99.90
9482;DHT22;4779;48.062;11.672;2024-02-21T05:27:39;3.90;99.90
9482;DHT22;4779;48.062;11.672;2024-02-21T05:30:07;3.80;99.90
9482;DHT22;4779;48.062;11.672;2024-02-21T05:32:34;3.70;99.90
9482;DHT22;4779;48.062;11.672;2024-02-21T05:35:02;3.70;99.90
9482;DHT22;4779;48.062;11.672;2024-02-21T05:37:29;3.70;99.90
9482;DHT22;4779;48.062;11.672;2024-02-21T05:39:56;3.70;99.90
9482;DHT22;4779;48.062;11.672;2024-02-21T05:42:23;3.70;99.90
9482;DHT22;4779;48.062;11.672;2024-02-21T05:44:50;3.70;99.90
9482;DHT22;4779;48.062;11.672;2024-02-21T05:47:17;3.70;99.90
9482;DHT22;4779;48.062;11.672;2024-02-21T05:49:46;3.70;99.90
9482;DHT22;4779;48.062;11.672;2024-02-21T05:52:15;3.70;99.90
9482;DHT22;4779;48.062;11.672;2024-02-21T05:54:42;3.70;99.90
9482;DHT22;4779;48.062;11.672;2024-02-21T05:57:09;3.70;99.90
9482;DHT22;4779;48.062;11.672;2024-02-21T05:59:38;3.70;99.90
9482;DHT22;4779;48.062;11.672;2024-02-21T06:02:07;3.70;99.90
9482;DHT22;4779;48.062;11.672;2024-02-21T06:04:34;3.60;99.90
9482;DHT22;4779;48.062;11.672;2024-02-21T06:07:01;3.70;99.90
9482;DHT22;4779;48.062;11.672;2024-02-21T06:09:30;3.70;99.90
9482;DHT22;4779;48.062;11.672;2024-02-21T06:11:57;3.70;99.90
9482;DHT22;4779;48.062;11.672;2024-02-21T06:14:24;3.80;99.90
9482;DHT22;4779;48.062;11.672;2024-02-21T06:16:51;3.80;99.90
9482;DHT22;4779;48.062;11.672;2024-02-21T06:19:18;3.80;99.90
9482;DHT22;4779;48.062;11.672;2024-02-21T06:21:45;3.90;99.90
9482;DHT22;4779;48.062;11.672;2024-02-21T06:24:15;3.90;99.90
9482;DHT22;4779;48.062;11.672;2024-02-21T06:26:44;3.80;99.90
9482;DHT22;4779;48.062;11.672;2024-02-21T06:29:11;3.80;99.90
9482;DHT22;4779;48.062;11.672;2024-02-21T06:31:39;3.80;99.90
9482;DHT22;4779;48.062;11.672;2024-02-21T06:34:06;3.90;99.90
9482;DHT22;4779;48.062;11.672;2024-02-21T06:36:33;3.90;99.90
9482;DHT22;4779;48.062;11.672;2024-02-21T06:39:01;3.90;99.90
9482;DHT22;4779;48.062;11.672;2024-02-21T06:41:30;3.90;99.90
9482;DHT22;4779;48.062;11.672;2024-02-21T06:43:59;4.00;99.90
9482;DHT22;4779;48.062;11.672;2024-02-21T06:46:27;4.00;99.90
9482;DHT22;4779;48.062;11.672;2024-02-21T06:48:55;4.10;99.90
9482;DHT22;4779;48.062;11.672;2024-02-21T06:51:23;4.20;99.90
9482;DHT22;4779;48.062;11.672;2024-02-21T06:53:50;4.30;99.90
9482;DHT22;4779;48.062;11.672;2024-02-21T06:56:17;4.30;99.90
9482;DHT22;4779;48.062;11.672;2024-02-21T06:58:44;4.30;99.90
9482;DHT22;4779;48.062;11.672;2024-02-21T07:01:13;4.30;99.90
9482;DHT22;4779;48.062;11.672;2024-02-21T07:03:40;4.30;99.90
9482;DHT22;4779;48.062;11.672;2024-02-21T07:06:07;4.40;99.90
9482;DHT22;4779;48.062;11.672;2024-02-21T07:08:34;4.40;99.90
9482;DHT22;4779;48.062;11.672;2024-02-21T07:11:01;4.50;99.90
9482;DHT22;4779;48.062;11.672;2024-02-21T07:13:28;4.50;99.90
9482;DHT22;4779;48.062;11.672;2024-02-21T07:15:58;4.50;99.90
9482;DHT22;4779;48.062;11.672;2024-02-21T07:18:26;4.50;99.90
9482;DHT22;4779;48.062;11.672;2024-02-21T07:20:53;4.50;99.90
9482;DHT22;4779;48.062;11.672;2024-02-21T07:23:21;4.50;99.90
9482;DHT22;4779;48.062;11.672;2024-02-21T07:25:48;4.50;99.90
9482;DHT22;4779;48.062;11.672;2024-02-21T07:28:15;4.50;99.90
9482;DHT22;4779;48.062;11.672;2024-02-21T07:30:42;4.60;99.90
9482;DHT22;4779;48.062;11.672;2024-02-21T07:33:09;4.70;99.90
9482;DHT22;4779;48.062;11.672;2024-02-21T07:35:38;4.70;99.90
9482;DHT22;4779;48.062;11.672;2024-02-21T07:38:10;4.80;99.90
9482;DHT22;4779;48.062;11.672;2024-02-21T07:40:38;4.90;99.90
9482;DHT22;4779;48.062;11.672;2024-02-21T07:43:05;4.90;99.90
9482;DHT22;4779;48.062;11.672;2024-02-21T07:45:32;5.00;99.90
9482;DHT22;4779;48.062;11.672;2024-02-21T07:47:59;5.00;99.90
9482;DHT22;4779;48.062;11.672;2024-02-21T07:50:26;5.00;99.90
9482;DHT22;4779;48.062;11.672;2024-02-21T07:52:55;5.00;99.90
9482;DHT22;4779;48.062;11.672;2024-02-21T07:55:22;4.90;99.90
9482;DHT22;4779;48.062;11.672;2024-02-21T07:57:49;5.00;99.90
9482;DHT22;4779;48.062;11.672;2024-02-21T08:00:17;5.00;99.90
9482;DHT22;4779;48.062;11.672;2024-02-21T08:02:48;5.10;99.90
9482;DHT22;4779;48.062;11.672;2024-02-21T08:05:15;5.10;99.90
9482;DHT22;4779;48.062;11.672;2024-02-21T08:07:42;5.10;99.90
9482;DHT22;4779;48.062;11.672;2024-02-21T08:10:11;5.10;99.90
9482;DHT22;4779;48.062;11.672;2024-02-21T08:12:44;5.30;99.90
9482;DHT22;4779;48.062;11.672;2024-02-21T08:15:11;5.30;99.90
9482;DHT22;4779;48.062;11.672;2024-02-21T08:17:38;5.40;99.90
9482;DHT22;4779;48.062;11.672;2024-02-21T08:20:06;5.50;99.90
9482;DHT22;4779;48.062;11.672;2024-02-21T08:22:33;5.50;99.90
9482;DHT22;4779;48.062;11.672;2024-02-21T08:25:00;5.60;99.90
9482;DHT22;4779;48.062;11.672;2024-02-21T08:27:28;5.60;99.90
9482;DHT22;4779;48.062;11.672;2024-02-21T08:29:55;5.60;99.90
9482;DHT22;4779;48.062;11.672;2024-02-21T08:32:22;5.70;99.90
9482;DHT22;4779;48.062;11.672;2024-02-21T08:34:49;5.70;99.90
9482;DHT22;4779;48.062;11.672;2024-02-21T08:37:17;5.70;99.90
9482;DHT22;4779;48.062;11.672;2024-02-21T08:39:44;5.80;99.90
9482;DHT22;4779;48.062;11.672;2024-02-21T08:42:11;6.00;99.90
9482;DHT22;4779;48.062;11.672;2024-02-21T08:44:39;6.20;99.90
9482;DHT22;4779;48.062;11.672;2024-02-21T08:47:07;6.40;99.90
9482;DHT22;4779;48.062;11.672;2024-02-21T08:49:38;6.50;99.90
9482;DHT22;4779;48.062;11.672;2024-02-21T08:52:06;6.60;99.90
9482;DHT22;4779;48.062;11.672;2024-02-21T08:54:33;6.70;99.90
9482;DHT22;4779;48.062;11.672;2024-02-21T08:57:06;6.80;99.90
9482;DHT22;4779;48.062;11.672;2024-02-21T08:59:33;6.90;99.90
9482;DHT22;4779;48.062;11.672;2024-02-21T09:02:04;7.00;99.90
9482;DHT22;4779;48.062;11.672;2024-02-21T09:04:38;7.20;99.90
9482;DHT22;4779;48.062;11.672;2024-02-21T09:07:05;7.30;99.90
9482;DHT22;4779;48.062;11.672;2024-02-21T09:09:32;7.40;99.90
9482;DHT22;4779;48.062;11.672;2024-02-21T09:11:59;7.50;99.90
9482;DHT22;4779;48.062;11.672;2024-02-21T09:14:31;7.60;99.90
9482;DHT22;4779;48.062;11.672;2024-02-21T09:16:58;7.70;99.90
9482;DHT22;4779;48.062;11.672;2024-02-21T09:19:27;7.70;99.90
9482;DHT22;4779;48.062;11.672;2024-02-21T09:21:54;7.90;99.90
9482;DHT22;4779;48.062;11.672;2024-02-21T09:24:21;8.10;99.90
9482;DHT22;4779;48.062;11.672;2024-02-21T09:26:48;8.40;99.90
9482;DHT22;4779;48.062;11.672;2024-02-21T09:29:15;8.90;99.90
9482;DHT22;4779;48.062;11.672;2024-02-21T09:31:42;9.50;99.10
9482;DHT22;4779;48.062;11.672;2024-02-21T09:34:12;10.10;97.70
9482;DHT22;4779;48.062;11.672;2024-02-21T09:36:40;10.70;95.10
9482;DHT22;4779;48.062;11.672;2024-02-21T09:39:07;11.40;93.30
9482;DHT22;4779;48.062;11.672;2024-02-21T09:41:39;12.10;91.20
9482;DHT22;4779;48.062;11.672;2024-02-21T09:44:14;12.80;90.60
9482;DHT22;4779;48.062;11.672;2024-02-21T09:46:51;13.50;90.20
9482;DHT22;4779;48.062;11.672;2024-02-21T09:49:30;14.30;84.70
9482;DHT22;4779;48.062;11.672;2024-02-21T09:52:00;15.00;81.30
9482;DHT22;4779;48.062;11.672;2024-02-21T09:54:29;15.00;81.80
9482;DHT22;4779;48.062;11.672;2024-02-21T09:56:56;15.20;78.40
9482;DHT22;4779;48.062;11.672;2024-02-21T09:59:24;15.20;78.00
9482;DHT22;4779;48.062;11.672;2024-02-21T10:01:56;15.60;78.10
9482;DHT22;4779;48.062;11.672;2024-02-21T10:04:25;15.80;75.40
9482;DHT22;4779;48.062;11.672;2024-02-21T10:06:53;15.90;76.90
9482;DHT22;4779;48.062;11.672;2024-02-21T10:09:22;16.50;74.50
9482;DHT22;4779;48.062;11.672;2024-02-21T10:11:50;17.00;72.40
9482;DHT22;4779;48.062;11.672;2024-02-21T10:14:17;17.10;69.90
9482;DHT22;4779;48.062;11.672;2024-02-21T10:16:45;17.50;72.70
9482;DHT22;4779;48.062;11.672;2024-02-21T10:19:19;17.30;69.10
9482;DHT22;4779;48.062;11.672;2024-02-21T10:22:00;17.60;67.20
9482;DHT22;4779;48.062;11.672;2024-02-21T10:24:30;17.80;66.80
9482;DHT22;4779;48.062;11.672;2024-02-21T10:27:02;18.30;70.40
9482;DHT22;4779;48.062;11.672;2024-02-21T10:29:29;17.70;65.60
9482;DHT22;4779;48.062;11.672;2024-02-21T10:32:07;17.70;67.40
9482;DHT22;4779;48.062;11.672;2024-02-21T10:34:34;17.80;67.90
9482;DHT22;4779;48.062;11.672;2024-02-21T10:37:02;17.70;64.50
9482;DHT22;4779;48.062;11.672;2024-02-21T10:39:31;17.80;67.30
9482;DHT22;4779;48.062;11.672;2024-02-21T10:42:01;17.90;62.00
9482;DHT22;4779;48.062;11.672;2024-02-21T10:44:31;17.80;66.40
9482;DHT22;4779;48.062;11.672;2024-02-21T10:46:58;18.30;66.80
9482;DHT22;4779;48.062;11.672;2024-02-21T10:49:26;18.30;64.50
9482;DHT22;4779;48.062;11.672;2024-02-21T10:51:57;18.00;61.50
9482;DHT22;4779;48.062;11.672;2024-02-21T10:54:43;17.90;64.60
9482;DHT22;4779;48.062;11.672;2024-02-21T10:57:13;17.80;62.40
9482;DHT22;4779;48.062;11.672;2024-02-21T10:59:44;17.50;62.20
9482;DHT22;4779;48.062;11.672;2024-02-21T11:02:11;17.40;60.30
9482;DHT22;4779;48.062;11.672;2024-02-21T11:04:39;17.10;60.80
9482;DHT22;4779;48.062;11.672;2024-02-21T11:07:07;16.90;61.90
9482;DHT22;4779;48.062;11.672;2024-02-21T11:09:34;16.90;58.60
9482;DHT22;4779;48.062;11.672;2024-02-21T11:12:04;16.40;58.00
9482;DHT22;4779;48.062;11.672;2024-02-21T11:14:32;16.40;58.00
9482;DHT22;4779;48.062;11.672;2024-02-21T11:17:01;16.50;61.20
9482;DHT22;4779;48.062;11.672;2024-02-21T11:19:30;16.60;59.10
9482;DHT22;4779;48.062;11.672;2024-02-21T11:21:57;16.80;59.50
9482;DHT22;4779;48.062;11.672;2024-02-21T11:24:27;16.80;57.60
9482;DHT22;4779;48.062;11.672;2024-02-21T11:26:55;16.90;57.70
9482;DHT22;4779;48.062;11.672;2024-02-21T11:29:27;17.30;61.40
9482;DHT22;4779;48.062;11.672;2024-02-21T11:31:55;17.60;54.40
9482;DHT22;4779;48.062;11.672;2024-02-21T11:34:22;17.60;56.70
9482;DHT22;4779;48.062;11.672;2024-02-21T11:36:51;17.50;59.20
9482;DHT22;4779;48.062;11.672;2024-02-21T11:39:22;17.60;55.50
9482;DHT22;4779;48.062;11.672;2024-02-21T11:42:01;17.60;59.30
9482;DHT22;4779;48.062;11.672;2024-02-21T11:44:31;17.20;57.80
9482;DHT22;4779;48.062;11.672;2024-02-21T11:46:58;17.10;53.40
9482;DHT22;4779;48.062;11.672;2024-02-21T11:49:25;17.00;54.90
9482;DHT22;4779;48.062;11.672;2024-02-21T11:51:58;16.40;51.70
9482;DHT22;4779;48.062;11.672;2024-02-21T11:54:26;16.00;52.20
9482;DHT22;4779;48.062;11.672;2024-02-21T11:56:53;15.70;53.40
9482;DHT22;4779;48.062;11.672;2024-02-21T11:59:20;15.90;55.40
9482;DHT22;4779;48.062;11.672;2024-02-21T12:01:49;15.90;56.40
9482;DHT22;4779;48.062;11.672;2024-02-21T12:04:18;15.80;54.80
9482;DHT22;4779;48.062;11.672;2024-02-21T12:06:46;15.60;59.10
9482;DHT22;4779;48.062;11.672;2024-02-21T12:09:14;15.60;56.80
9482;DHT22;4779;48.062;11.672;2024-02-21T12:11:41;15.60;56.50
9482;DHT22;4779;48.062;11.672;2024-02-21T12:14:09;15.60;57.10
9482;DHT22;4779;48.062;11.672;2024-02-21T12:16:36;15.80;56.60
9482;DHT22;4779;48.062;11.672;2024-02-21T12:19:05;15.90;56.10
9482;DHT22;4779;48.062;11.672;2024-02-21T12:21:33;16.00;56.50
9482;DHT22;4779;48.062;11.672;2024-02-21T12:24:12;16.10;56.70
9482;DHT22;4779;48.062;11.672;2024-02-21T12:26:39;16.20;57.30
9482;DHT22;4779;48.062;11.672;2024-02-21T12:29:07;16.40;56.20
9482;DHT22;4779;48.062;11.672;2024-02-21T12:31:35;16.20;54.10
9482;DHT22;4779;48.062;11.672;2024-02-21T12:34:02;16.10;57.60
9482;DHT22;4779;48.062;11.672;2024-02-21T12:36:35;16.10;56.70
9482;DHT22;4779;48.062;11.672;2024-02-21T12:39:03;15.90;55.50
9482;DHT22;4779;48.062;11.672;2024-02-21T12:41:30;15.20;52.60
9482;DHT22;4779;48.062;11.672;2024-02-21T12:44:02;15.30;55.60
9482;DHT22;4779;48.062;11.672;2024-02-21T12:46:29;15.50;54.00
9482;DHT22;4779;48.062;11.672;2024-02-21T12:48:56;15.70;54.80
9482;DHT22;4779;48.062;11.672;2024-02-21T12:51:23;16.00;54.10
9482;DHT22;4779;48.062;11.672;2024-02-21T12:53:55;16.00;53.70
9482;DHT22;4779;48.062;11.672;2024-02-21T12:56:22;16.00;52.40
9482;DHT22;4779;48.062;11.672;2024-02-21T12:58:49;15.80;50.90
9482;DHT22;4779;48.062;11.672;2024-02-21T13:01:17;15.50;52.80
9482;DHT22;4779;48.062;11.672;2024-02-21T13:03:44;15.40;51.20
9482;DHT22;4779;48.062;11.672;2024-02-21T13:06:12;15.40;50.80
9482;DHT22;4779;48.062;11.672;2024-02-21T13:08:39;15.40;52.30
9482;DHT22;4779;48.062;11.672;2024-02-21T13:11:08;15.50;52.20
9482;DHT22;4779;48.062;11.672;2024-02-21T13:13:35;15.60;54.10
9482;DHT22;4779;48.062;11.672;2024-02-21T13:16:08;15.70;54.60
9482;DHT22;4779;48.062;11.672;2024-02-21T13:18:36;15.90;55.00
9482;DHT22;4779;48.062;11.672;2024-02-21T13:21:06;16.00;52.90
9482;DHT22;4779;48.062;11.672;2024-02-21T13:23:34;15.90;51.90
9482;DHT22;4779;48.062;11.672;2024-02-21T13:26:01;15.90;54.20
9482;DHT22;4779;48.062;11.672;2024-02-21T13:28:32;16.00;52.40
9482;DHT22;4779;48.062;11.672;2024-02-21T13:30:59;16.10;53.20
9482;DHT22;4779;48.062;11.672;2024-02-21T13:33:26;16.10;56.10
9482;DHT22;4779;48.062;11.672;2024-02-21T13:35:57;16.00;52.40
9482;DHT22;4779;48.062;11.672;2024-02-21T13:38:24;15.80;57.40
9482;DHT22;4779;48.062;11.672;2024-02-21T13:40:52;15.80;56.40
9482;DHT22;4779;48.062;11.672;2024-02-21T13:43:19;15.60;52.30
9482;DHT22;4779;48.062;11.672;2024-02-21T13:45:56;15.60;57.20
9482;DHT22;4779;48.062;11.672;2024-02-21T13:48:23;15.10;52.60
9482;DHT22;4779;48.062;11.672;2024-02-21T13:50:51;14.90;54.00
9482;DHT22;4779;48.062;11.672;2024-02-21T13:53:18;15.00;56.30
9482;DHT22;4779;48.062;11.672;2024-02-21T13:55:46;14.90;57.30
9482;DHT22;4779;48.062;11.672;2024-02-21T13:58:18;15.00;55.60
9482;DHT22;4779;48.062;11.672;2024-02-21T14:00:49;15.00;56.50
9482;DHT22;4779;48.062;11.672;2024-02-21T14:03:18;14.90;52.90
9482;DHT22;4779;48.062;11.672;2024-02-21T14:05:46;14.90;54.60
9482;DHT22;4779;48.062;11.672;2024-02-21T14:08:14;14.90;55.90
9482;DHT22;4779;48.062;11.672;2024-02-21T14:10:44;14.80;53.50
9482;DHT22;4779;48.062;11.672;2024-02-21T14:13:14;14.80;53.90
9482;DHT22;4779;48.062;11.672;2024-02-21T14:15:44;14.90;57.50
9482;DHT22;4779;48.062;11.672;2024-02-21T14:18:13;14.80;56.60
9482;DHT22;4779;48.062;11.672;2024-02-21T14:20:43;14.70;56.90
9482;DHT22;4779;48.062;11.672;2024-02-21T14:23:10;14.60;54.60
9482;DHT22;4779;48.062;11.672;2024-02-21T14:25:38;14.50;55.50
9482;DHT22;4779;48.062;11.672;2024-02-21T14:28:08;14.30;55.00
9482;DHT22;4779;48.062;11.672;2024-02-21T14:30:36;14.20;59.60
9482;DHT22;4779;48.062;11.672;2024-02-21T14:33:03;14.20;57.80
9482;DHT22;4779;48.062;11.672;2024-02-21T14:35:30;14.00;56.60
9482;DHT22;4779;48.062;11.672;2024-02-21T14:37:58;14.00;57.10
9482;DHT22;4779;48.062;11.672;2024-02-21T14:40:27;13.80;54.70
9482;DHT22;4779;48.062;11.672;2024-02-21T14:42:55;13.80;56.40
9482;DHT22;4779;48.062;11.672;2024-02-21T14:45:22;13.70;58.60
9482;DHT22;4779;48.062;11.672;2024-02-21T14:47:49;13.70;57.50
9482;DHT22;4779;48.062;11.672;2024-02-21T14:50:17;13.70;59.90
9482;DHT22;4779;48.062;11.672;2024-02-21T14:52:44;13.60;59.00
9482;DHT22;4779;48.062;11.672;2024-02-21T14:55:15;13.60;59.20
9482;DHT22;4779;48.062;11.672;2024-02-21T14:57:42;13.60;60.20
9482;DHT22;4779;48.062;11.672;2024-02-21T15:00:10;13.60;57.80
9482;DHT22;4779;48.062;11.672;2024-02-21T15:02:38;13.50;57.70
9482;DHT22;4779;48.062;11.672;2024-02-21T15:05:06;13.50;56.90
9482;DHT22;4779;48.062;11.672;2024-02-21T15:07:33;13.40;57.50
9482;DHT22;4779;48.062;11.672;2024-02-21T15:10:03;13.50;57.80
9482;DHT22;4779;48.062;11.672;2024-02-21T15:12:31;13.50;58.00
9482;DHT22;4779;48.062;11.672;2024-02-21T15:14:58;13.40;58.00
9482;DHT22;4779;48.062;11.672;2024-02-21T15:17:26;13.40;57.30
9482;DHT22;4779;48.062;11.672;2024-02-21T15:19:53;13.20;57.80
9482;DHT22;4779;48.062;11.672;2024-02-21T15:22:21;13.20;58.10
9482;DHT22;4779;48.062;11.672;2024-02-21T15:24:48;13.20;63.00
9482;DHT22;4779;48.062;11.672;2024-02-21T15:27:20;13.10;59.70
9482;DHT22;4779;48.062;11.672;2024-02-21T15:29:48;13.00;60.40
9482;DHT22;4779;48.062;11.672;2024-02-21T15:32:15;13.00;58.80
9482;DHT22;4779;48.062;11.672;2024-02-21T15:34:42;12.90;63.50
9482;DHT22;4779;48.062;11.672;2024-02-21T15:37:09;12.80;61.80
9482;DHT22;4779;48.062;11.672;2024-02-21T15:39:37;12.70;63.70
9482;DHT22;4779;48.062;11.672;2024-02-21T15:42:05;12.70;66.40
9482;DHT22;4779;48.062;11.672;2024-02-21T15:44:35;12.50;70.40
9482;DHT22;4779;48.062;11.672;2024-02-21T15:47:04;12.40;71.80
9482;DHT22;4779;48.062;11.672;2024-02-21T15:49:32;12.30;73.80
9482;DHT22;4779;48.062;11.672;2024-02-21T15:51:59;12.10;73.40
9482;DHT22;4779;48.062;11.672;2024-02-21T15:54:26;12.10;74.60
9482;DHT22;4779;48.062;11.672;2024-02-21T15:56:54;11.90;76.70
9482;DHT22;4779;48.062;11.672;2024-02-21T15:59:25;11.80;78.20